Time;durP1;ratioP1;P1;durP2;ratioP2;P2;SDS_P1;SDS_P2;PMS_P1;PMS_P2;Temp;Humidity;BMP_temperature;BMP_pressure;BME280_temperature;BME280_humidity;BME280_pressure;Samples;Min_cycle;Max_cycle;Signal;HPM_P1;HPM_P2
2023/10/17 00:01:34;;;;;;;3.55;2.42;;;19.70;69.50;;;;;;6279471;22;20068;-65
2023/10/17 00:04:24;;;;;;;4.20;3.00;;;19.70;69.50;;;;;;6278971;22;20491;-65
2023/10/17 00:06:50;;;;;;;4.53;3.03;;;19.70;69.40;;;;;;6278776;22;20086;-65
2023/10/17 00:09:22;;;;;;;5.22;2.60;;;19.60;69.40;;;;;;6278960;22;20104;-65
2023/10/17 00:14:23;;;;;;;4.40;2.55;;;19.70;69.40;;;;;;6305240;22;20027;-65
2023/10/17 00:16:50;;;;;;;4.38;2.70;;;19.60;69.30;;;;;;6307120;22;20471;-65
2023/10/17 00:19:16;;;;;;;4.60;2.45;;;19.60;69.40;;;;;;6278793;22;20014;-65
2023/10/17 00:21:41;;;;;;;5.90;2.78;;;19.70;69.40;;;;;;6305996;22;20019;-65
2023/10/17 00:24:08;;;;;;;4.38;2.88;;;19.70;69.40;;;;;;6307274;22;20011;-65
2023/10/17 00:26:36;;;;;;;4.72;2.53;;;19.70;69.30;;;;;;6306260;22;20019;-65
2023/10/17 00:29:05;;;;;;;4.43;2.50;;;19.60;69.30;;;;;;6307442;22;20105;-65
2023/10/17 00:31:31;;;;;;;5.40;2.53;;;19.60;69.30;;;;;;6306815;22;20072;-66
2023/10/17 00:34:12;;;;;;;4.07;2.30;;;19.60;69.30;;;;;;6277924;22;20062;-65
2023/10/17 00:39:32;;;;;;;4.05;2.45;;;19.60;69.20;;;;;;6306785;22;20026;-65
2023/10/17 00:44:39;;;;;;;4.30;2.40;;;19.60;69.20;;;;;;6306417;22;20343;-65
2023/10/17 00:47:08;;;;;;;4.38;2.35;;;19.60;69.20;;;;;;6278794;22;20387;-65
2023/10/17 00:49:40;;;;;;;3.53;2.25;;;19.60;69.20;;;;;;6278095;22;20447;-65
2023/10/17 00:52:15;;;;;;;4.15;2.47;;;19.60;69.10;;;;;;6308042;22;20031;-65
2023/10/17 00:54:41;;;;;;;4.25;2.45;;;19.60;69.10;;;;;;6280768;22;20019;-65
2023/10/17 00:57:07;;;;;;;4.10;2.63;;;19.60;69.10;;;;;;6281303;22;20020;-65
2023/10/17 00:59:33;;;;;;;4.75;2.17;;;19.60;69.10;;;;;;6281938;22;20088;-65
2023/10/17 01:02:08;;;;;;;4.30;2.40;;;19.60;69.20;;;;;;6307478;22;20015;-65
2023/10/17 01:04:34;;;;;;;4.25;2.53;;;19.60;69.10;;;;;;6309104;22;20094;-65
2023/10/17 01:07:06;;;;;;;4.57;2.50;;;19.50;69.10;;;;;;6308772;22;20007;-65
2023/10/17 01:09:34;;;;;;;4.10;2.13;;;19.60;69.10;;;;;;6279719;22;20073;-65
2023/10/17 01:12:09;;;;;;;3.88;2.40;;;19.50;69.10;;;;;;6281322;22;20011;-65
2023/10/17 01:14:38;;;;;;;3.05;2.00;;;19.50;69.10;;;;;;6257243;22;20086;-65
2023/10/17 01:17:15;;;;;;;3.63;2.17;;;19.50;69.00;;;;;;6307802;22;20023;-65
2023/10/17 01:19:41;;;;;;;4.40;2.35;;;19.50;69.00;;;;;;6308909;22;20012;-65
2023/10/17 01:22:06;;;;;;;3.47;2.10;;;19.50;69.10;;;;;;6308952;22;20038;-65
2023/10/17 01:24:32;;;;;;;4.43;2.55;;;19.50;69.00;;;;;;6307228;22;20107;-65
2023/10/17 01:26:59;;;;;;;4.75;2.47;;;19.50;69.00;;;;;;6308584;22;20023;-66
2023/10/17 01:29:24;;;;;;;3.20;1.80;;;19.50;69.00;;;;;;6280659;22;20019;-65
2023/10/17 01:31:50;;;;;;;4.40;2.20;;;19.50;68.90;;;;;;6307781;22;20029;-65
2023/10/17 01:34:16;;;;;;;4.97;2.20;;;19.50;69.00;;;;;;6307137;22;20022;-65
2023/10/17 01:36:43;;;;;;;2.70;1.65;;;19.50;69.00;;;;;;6307355;22;20011;-65
2023/10/17 01:39:09;;;;;;;3.53;2.17;;;19.50;69.00;;;;;;6306041;22;20325;-65
2023/10/17 01:41:35;;;;;;;3.38;2.03;;;19.40;68.90;;;;;;6307805;22;20076;-65
2023/10/17 01:44:04;;;;;;;3.25;1.80;;;19.50;69.00;;;;;;6306698;22;20011;-65
2023/10/17 01:46:29;;;;;;;3.03;1.70;;;19.40;69.00;;;;;;6308347;22;20062;-65
2023/10/17 01:48:55;;;;;;;2.67;1.80;;;19.40;68.90;;;;;;6280823;22;20428;-65
2023/10/17 01:51:23;;;;;;;4.25;1.90;;;19.40;68.90;;;;;;6278248;22;20450;-65
2023/10/17 01:53:50;;;;;;;3.83;1.90;;;19.40;68.90;;;;;;6281019;22;20046;-65
2023/10/17 01:56:16;;;;;;;3.67;1.73;;;19.40;68.90;;;;;;6307930;22;20030;-65
2023/10/17 01:58:48;;;;;;;2.75;1.77;;;19.40;68.90;;;;;;6307652;22;20011;-65
2023/10/17 02:01:17;;;;;;;4.72;1.95;;;19.40;68.80;;;;;;6307408;22;20239;-65
2023/10/17 02:03:46;;;;;;;2.97;1.65;;;19.40;68.90;;;;;;6280049;22;20057;-65
2023/10/17 02:06:16;;;;;;;3.03;1.88;;;19.40;68.80;;;;;;6279040;22;20677;-65
2023/10/17 02:08:42;;;;;;;2.90;1.60;;;19.40;68.80;;;;;;6280283;22;20078;-65
2023/10/17 02:11:12;;;;;;;4.32;1.92;;;19.40;68.80;;;;;;6308045;22;20011;-65
2023/10/17 02:13:41;;;;;;;2.58;1.58;;;19.40;68.70;;;;;;6307028;22;20097;-65
2023/10/17 02:16:07;;;;;;;3.03;1.60;;;19.40;68.80;;;;;;6280914;22;20446;-65
2023/10/17 02:18:33;;;;;;;3.22;1.83;;;19.30;68.70;;;;;;6307805;22;20415;-65
2023/10/17 02:21:04;;;;;;;3.38;1.60;;;19.30;68.70;;;;;;6307096;22;20023;-65
2023/10/17 02:23:39;;;;;;;3.58;1.77;;;19.30;68.70;;;;;;6308023;22;20015;-65
2023/10/17 02:26:08;;;;;;;3.28;1.70;;;19.30;68.70;;;;;;6308219;22;20505;-65
2023/10/17 02:28:44;;;;;;;2.72;1.48;;;19.30;69.30;;;;;;6308287;22;20030;-65
2023/10/17 02:31:12;;;;;;;2.92;1.60;;;19.30;68.70;;;;;;6307561;22;20023;-65
2023/10/17 02:33:41;;;;;;;3.33;1.67;;;19.30;68.60;;;;;;6279618;22;20015;-65
2023/10/17 02:36:12;;;;;;;2.10;1.30;;;19.30;68.70;;;;;;6280372;22;20015;-65
2023/10/17 02:38:40;;;;;;;3.05;1.58;;;19.30;68.70;;;;;;6307521;22;20023;-65
2023/10/17 02:41:12;;;;;;;2.63;1.38;;;19.30;68.70;;;;;;6306873;22;20048;-65
2023/10/17 02:43:40;;;;;;;3.05;1.70;;;19.30;68.60;;;;;;6307860;22;20023;-65
2023/10/17 02:46:06;;;;;;;2.80;1.30;;;19.30;68.70;;;;;;6280417;22;20015;-65
2023/10/17 02:48:38;;;;;;;3.00;1.73;;;19.30;68.70;;;;;;6279043;22;20043;-65
2023/10/17 02:53:51;;;;;;;3.13;1.40;;;19.30;68.70;;;;;;6307848;22;20111;-65
2023/10/17 02:56:20;;;;;;;2.95;1.55;;;19.30;68.70;;;;;;6306743;22;20034;-65
2023/10/17 02:58:50;;;;;;;2.90;1.52;;;19.30;68.70;;;;;;6280355;22;20030;-65
2023/10/17 03:01:17;;;;;;;2.55;1.30;;;19.30;68.70;;;;;;6306745;22;20011;-65
2023/10/17 03:03:42;;;;;;;2.80;1.35;;;19.30;68.70;;;;;;6307757;22;20046;-65
2023/10/17 03:06:16;;;;;;;2.55;1.40;;;19.30;69.40;;;;;;6307315;22;20331;-65
2023/10/17 03:09:00;;;;;;;2.72;1.10;;;19.30;68.70;;;;;;6279123;22;20351;-65
2023/10/17 03:11:47;;;;;;;2.97;1.27;;;19.30;68.70;;;;;;6307539;22;20011;-65
2023/10/17 03:14:19;;;;;;;2.40;1.20;;;19.30;68.70;;;;;;6307461;22;20152;-65
2023/10/17 03:16:54;;;;;;;2.55;1.38;;;19.30;68.60;;;;;;6306847;22;20060;-65
2023/10/17 03:19:25;;;;;;;2.65;1.30;;;19.30;68.60;;;;;;6307174;22;20076;-66
2023/10/17 03:21:53;;;;;;;3.08;1.38;;;19.30;68.60;;;;;;6280562;22;20086;-65
2023/10/17 03:24:19;;;;;;;3.80;1.17;;;19.30;68.60;;;;;;6306493;22;20023;-66
2023/10/17 03:27:07;;;;;;;3.00;1.60;;;19.30;68.60;;;;;;6307683;22;20076;-66
2023/10/17 03:29:34;;;;;;;2.55;1.35;;;19.40;68.60;;;;;;6306750;22;20021;-66
2023/10/17 03:32:10;;;;;;;2.15;1.20;;;19.40;68.60;;;;;;6307523;22;20015;-66
2023/10/17 03:34:37;;;;;;;2.90;1.25;;;19.40;68.50;;;;;;6307342;22;20084;-65
2023/10/17 03:39:52;;;;;;;1.77;1.20;;;19.40;68.40;;;;;;6307784;22;20019;-65
2023/10/17 03:42:31;;;;;;;2.90;1.30;;;19.40;68.40;;;;;;6307185;22;20019;-65
2023/10/17 03:44:57;;;;;;;2.50;1.40;;;19.50;68.50;;;;;;6306240;22;20016;-65
2023/10/17 03:47:23;;;;;;;2.38;1.20;;;19.50;68.50;;;;;;6307073;22;20038;-65
2023/10/17 03:49:48;;;;;;;1.90;1.10;;;19.50;68.50;;;;;;6306800;22;20019;-65
2023/10/17 03:52:16;;;;;;;2.53;1.38;;;19.50;68.40;;;;;;6306115;22;20439;-66
2023/10/17 03:54:44;;;;;;;2.33;1.10;;;19.50;68.40;;;;;;6307450;22;20439;-65
2023/10/17 03:57:15;;;;;;;2.28;1.02;;;19.50;68.40;;;;;;6306417;22;20015;-65
2023/10/17 03:59:42;;;;;;;3.03;1.02;;;19.50;68.40;;;;;;6305731;22;20011;-65
2023/10/17 04:02:12;;;;;;;1.85;1.23;;;19.60;68.40;;;;;;6304658;22;20054;-65
2023/10/17 04:04:49;;;;;;;2.22;1.13;;;19.60;68.40;;;;;;6277340;22;20081;-65
2023/10/17 04:07:16;;;;;;;1.27;0.90;;;19.60;69.00;;;;;;6306296;22;20027;-65
2023/10/17 04:10:02;;;;;;;2.22;1.00;;;19.60;68.40;;;;;;6306618;22;20435;-65
2023/10/17 04:12:38;;;;;;;2.28;1.30;;;19.60;68.40;;;;;;6305804;22;20023;-65
2023/10/17 04:15:07;;;;;;;2.10;1.08;;;19.60;68.30;;;;;;6278982;22;20042;-65
2023/10/17 04:17:36;;;;;;;2.15;1.10;;;19.70;68.40;;;;;;6279557;22;20051;-65
2023/10/17 04:20:11;;;;;;;1.75;1.08;;;19.60;68.40;;;;;;6305921;22;20086;-65
2023/10/17 04:22:38;;;;;;;1.65;0.90;;;19.60;68.30;;;;;;6307106;22;20092;-65
2023/10/17 04:25:20;;;;;;;1.17;0.90;;;19.70;68.30;;;;;;6307115;22;20011;-65
2023/10/17 04:27:54;;;;;;;2.78;1.20;;;19.70;68.30;;;;;;6309019;22;20015;-65
2023/10/17 04:30:29;;;;;;;2.08;1.00;;;19.70;68.30;;;;;;6282662;22;20023;-65
2023/10/17 04:33:13;;;;;;;2.22;1.00;;;19.70;68.30;;;;;;6309960;22;20088;-65
2023/10/17 04:35:48;;;;;;;1.30;0.70;;;19.70;68.30;;;;;;6309997;22;20023;-65
2023/10/17 04:38:26;;;;;;;1.90;1.00;;;19.70;68.30;;;;;;6282576;22;20019;-65
2023/10/17 04:42:04;;;;;;;1.65;0.80;;;19.70;68.30;;;;;;6282079;22;20440;-65
2023/10/17 04:44:02;;;;;;;2.55;1.40;;;19.70;68.30;;;;;;6297554;22;20015;-65
2023/10/17 04:46:29;;;;;;;2.05;1.02;;;19.70;68.20;;;;;;6309979;22;20499;-65
2023/10/17 04:49:06;;;;;;;2.15;1.00;;;19.80;68.30;;;;;;6309698;22;20019;-65
2023/10/17 04:51:31;;;;;;;1.70;0.90;;;19.70;68.20;;;;;;6282682;22;20015;-65
2023/10/17 04:54:05;;;;;;;1.75;0.80;;;19.80;68.30;;;;;;6309612;22;20018;-65
2023/10/17 04:56:52;;;;;;;1.58;0.95;;;19.80;68.20;;;;;;6282523;22;20309;-65
2023/10/17 04:59:27;;;;;;;2.38;0.90;;;19.80;68.20;;;;;;6282527;22;20019;-65
2023/10/17 05:02:13;;;;;;;2.87;1.00;;;19.80;68.20;;;;;;6277103;22;20463;-65
2023/10/17 05:05:38;;;;;;;1.42;0.82;;;19.80;68.20;;;;;;6278791;22;20511;-64
2023/10/17 05:07:28;;;;;;;2.03;1.00;;;19.80;68.20;;;;;;6277117;22;20445;-65
2023/10/17 06:18:31;;;;;;;1.17;0.70;;;19.90;67.90;;;;;;6306517;22;20352;-63
2023/10/17 06:34:19;;;;;;;1.58;0.88;;;19.90;67.70;;;;;;6306455;22;20447;-60
2023/10/17 06:36:50;;;;;;;4.75;0.80;;;19.90;67.60;;;;;;6307449;22;20098;-60
2023/10/17 06:39:19;;;;;;;2.28;0.95;;;19.90;67.60;;;;;;6307740;22;20011;-61
2023/10/17 06:41:47;;;;;;;3.97;1.25;;;19.90;67.60;;;;;;6307759;22;20023;-62
2023/10/17 06:44:23;;;;;;;4.00;0.90;;;19.90;67.60;;;;;;6280148;22;20065;-62
2023/10/17 06:54:43;;;;;;;2.58;0.80;;;19.90;67.60;;;;;;6305804;22;20027;-62
2023/10/17 06:57:24;;;;;;;3.80;0.80;;;19.90;67.60;;;;;;6278605;22;20015;-62
2023/10/17 06:59:51;;;;;;;4.40;0.90;;;19.90;67.70;;;;;;6277885;22;20050;-62
2023/10/17 07:02:27;;;;;;;1.60;0.70;;;19.90;67.70;;;;;;6304403;22;20019;-63
2023/10/17 07:04:55;;;;;;;4.00;0.80;;;19.90;67.90;;;;;;6305693;22;20660;-62
2023/10/17 07:07:22;;;;;;;3.47;0.80;;;20.00;68.00;;;;;;6306381;22;20057;-63
2023/10/17 07:10:16;;;;;;;2.92;0.70;;;20.00;68.10;;;;;;6278626;22;20026;-62
2023/10/17 07:12:39;;;;;;;2.15;0.80;;;20.00;68.80;;;;;;6306917;22;20015;-61
2023/10/17 07:15:18;;;;;;;3.70;1.00;;;20.00;68.20;;;;;;6306933;22;20053;-60
2023/10/17 07:17:49;;;;;;;3.88;0.93;;;20.00;68.20;;;;;;6307779;22;20050;-60
2023/10/17 07:21:08;;;;;;;4.22;1.02;;;20.10;68.30;;;;;;6279911;22;20023;-62
2023/10/17 07:23:11;;;;;;;2.92;0.80;;;20.10;68.30;;;;;;6305842;22;20047;-61
2023/10/17 07:25:38;;;;;;;2.67;0.93;;;20.10;68.30;;;;;;6279876;22;20018;-61
2023/10/17 07:28:04;;;;;;;1.80;0.80;;;20.10;68.30;;;;;;6280041;22;20019;-61
2023/10/17 07:30:40;;;;;;;4.38;0.95;;;20.20;68.40;;;;;;6306313;22;20447;-60
2023/10/17 07:33:07;;;;;;;2.67;0.68;;;20.20;68.30;;;;;;6279587;22;20018;-61
2023/10/17 07:35:36;;;;;;;2.78;0.70;;;20.20;68.40;;;;;;6307054;22;20051;-60
2023/10/17 07:38:04;;;;;;;3.67;0.90;;;20.20;68.30;;;;;;6307337;22;20051;-60
2023/10/17 07:43:07;;;;;;;2.42;0.80;;;20.20;68.30;;;;;;6306592;22;20019;-60
2023/10/17 07:45:38;;;;;;;3.10;1.10;;;20.30;68.10;;;;;;6304207;22;20324;-59
2023/10/17 07:48:19;;;;;;;2.70;0.80;;;20.30;68.10;;;;;;6278610;22;20022;-59
2023/10/17 07:50:53;;;;;;;1.73;0.80;;;20.40;68.10;;;;;;6306443;22;20064;-60
2023/10/17 07:53:22;;;;;;;1.73;0.80;;;20.40;68.10;;;;;;6306806;22;20022;-59
2023/10/17 07:56:03;;;;;;;4.07;1.17;;;20.40;68.10;;;;;;6278607;22;20023;-58
2023/10/17 07:58:45;;;;;;;2.80;0.85;;;20.40;68.20;;;;;;6305523;22;20015;-59
2023/10/17 08:01:14;;;;;;;1.95;0.70;;;20.40;68.20;;;;;;6305662;22;20029;-60
2023/10/17 08:03:41;;;;;;;3.03;0.98;;;20.50;68.30;;;;;;6306613;22;20030;-59
2023/10/17 08:06:12;;;;;;;1.30;0.75;;;20.50;68.30;;;;;;6278919;22;20435;-60
2023/10/17 08:08:43;;;;;;;3.20;0.90;;;20.50;68.30;;;;;;6307253;22;20015;-60
2023/10/17 08:11:27;;;;;;;3.95;0.93;;;20.50;68.30;;;;;;6305690;22;20011;-59
2023/10/17 08:13:58;;;;;;;2.72;0.80;;;20.50;68.30;;;;;;6306996;22;20026;-61
2023/10/17 08:16:28;;;;;;;2.47;0.90;;;20.50;68.20;;;;;;6279351;22;20019;-60
2023/10/17 08:19:13;;;;;;;4.75;0.90;;;20.50;68.10;;;;;;6305773;22;20011;-61
2023/10/17 08:24:26;;;;;;;2.33;0.80;;;20.60;68.00;;;;;;6279204;22;20023;-61
2023/10/17 08:29:48;;;;;;;4.38;0.98;;;20.60;68.20;;;;;;6236902;22;20057;-61
2023/10/17 08:34:46;;;;;;;2.85;0.77;;;20.70;68.30;;;;;;6279256;22;20066;-61
2023/10/17 08:37:18;;;;;;;2.38;0.98;;;20.60;68.30;;;;;;6279144;22;20019;-61
2023/10/17 08:42:12;;;;;;;2.22;0.82;;;20.70;68.30;;;;;;6278971;22;20030;-60
2023/10/17 08:44:39;;;;;;;1.67;0.70;;;20.70;68.30;;;;;;6279708;22;20090;-60
2023/10/17 08:47:05;;;;;;;2.35;0.88;;;20.70;68.30;;;;;;6278531;22;20211;-60
2023/10/17 08:49:31;;;;;;;1.63;0.70;;;20.70;68.30;;;;;;6306053;22;20347;-60
2023/10/17 08:52:00;;;;;;;2.25;0.70;;;20.70;68.30;;;;;;6306918;22;20062;-61
2023/10/17 08:54:28;;;;;;;3.15;0.80;;;20.70;68.30;;;;;;6278209;22;20436;-60
2023/10/17 08:56:54;;;;;;;3.95;0.85;;;20.70;68.20;;;;;;6279103;22;20024;-61
2023/10/17 09:02:29;;;;;;;2.33;0.90;;;20.70;68.30;;;;;;6210446;23;20048;-60
2023/10/17 09:05:13;;;;;;;3.45;0.70;;;20.70;68.20;;;;;;6265635;22;20098;-60
2023/10/17 09:07:43;;;;;;;2.42;0.75;;;20.70;68.10;;;;;;6304672;22;20374;-60
2023/10/17 09:10:28;;;;;;;3.15;0.80;;;20.70;68.00;;;;;;6253054;22;20069;-61
2023/10/17 09:15:48;;;;;;;2.28;0.70;;;20.80;68.10;;;;;;6307717;22;20023;-60
2023/10/17 09:18:14;;;;;;;1.15;0.63;;;20.80;68.10;;;;;;6307984;22;20078;-60
2023/10/17 09:20:39;;;;;;;4.20;0.70;;;20.80;68.00;;;;;;6308301;22;20015;-61
2023/10/17 09:23:21;;;;;;;1.13;0.60;;;20.80;67.80;;;;;;6308143;22;20019;-61
2023/10/17 09:25:53;;;;;;;1.95;0.77;;;20.80;67.70;;;;;;6308869;22;20015;-61
2023/10/17 09:28:22;;;;;;;2.13;0.73;;;20.80;67.60;;;;;;6279889;22;20026;-61
2023/10/17 09:31:06;;;;;;;1.80;0.65;;;20.80;67.60;;;;;;6308623;22;20019;-61
2023/10/17 09:33:32;;;;;;;1.42;0.70;;;20.80;67.50;;;;;;6308144;22;20015;-62
2023/10/17 09:35:59;;;;;;;5.95;0.88;;;20.80;67.40;;;;;;6307461;22;20019;-61
2023/10/17 09:38:29;;;;;;;3.90;0.70;;;20.70;67.20;;;;;;6280550;22;20022;-62
2023/10/17 09:40:59;;;;;;;2.53;0.88;;;20.80;67.50;;;;;;6281263;22;20015;-60
2023/10/17 09:43:25;;;;;;;7.72;1.10;;;20.80;67.60;;;;;;6307017;22;20016;-61
2023/10/17 09:45:52;;;;;;;11.70;1.50;;;20.80;67.60;;;;;;6308520;22;20023;-62
2023/10/17 09:48:19;;;;;;;11.80;1.73;;;20.80;67.60;;;;;;6307843;22;20439;-62
2023/10/17 09:50:45;;;;;;;11.40;1.80;;;20.80;67.70;;;;;;6307839;22;20019;-65
2023/10/17 09:53:16;;;;;;;12.48;1.67;;;20.70;67.70;;;;;;6281056;22;20015;-64
2023/10/17 09:55:48;;;;;;;15.32;2.20;;;20.80;67.90;;;;;;6281757;22;20023;-61
2023/10/17 09:58:20;;;;;;;11.20;1.20;;;20.80;67.80;;;;;;6307045;22;20015;-61
2023/10/17 10:00:48;;;;;;;8.80;1.48;;;20.70;67.70;;;;;;6280462;22;20015;-62
2023/10/17 10:03:13;;;;;;;7.65;1.55;;;20.70;67.70;;;;;;6280821;22;20090;-62
2023/10/17 10:05:39;;;;;;;7.90;1.30;;;20.70;67.70;;;;;;6307343;22;20065;-63
2023/10/17 10:08:25;;;;;;;10.10;1.70;;;20.70;67.70;;;;;;6307897;22;20019;-62
2023/10/17 10:10:52;;;;;;;6.22;1.13;;;20.70;67.80;;;;;;6307156;22;20026;-61
2023/10/17 10:13:19;;;;;;;8.45;1.55;;;20.70;67.80;;;;;;6307608;22;20037;-62
2023/10/17 10:15:51;;;;;;;9.68;1.10;;;20.70;67.90;;;;;;6308472;22;20022;-62
2023/10/17 10:18:17;;;;;;;9.25;1.20;;;20.70;67.70;;;;;;6306853;22;20018;-62
2023/10/17 10:20:56;;;;;;;8.48;1.10;;;20.70;67.70;;;;;;6280705;22;20518;-62
2023/10/17 10:23:41;;;;;;;6.78;1.52;;;20.70;67.70;;;;;;6307639;22;20015;-62
2023/10/17 10:26:13;;;;;;;9.48;1.63;;;20.60;67.70;;;;;;6307158;22;20019;-62
2023/10/17 10:28:42;;;;;;;5.32;1.08;;;20.60;67.80;;;;;;6307869;22;20019;-62
2023/10/17 10:31:24;;;;;;;6.68;1.02;;;20.60;67.70;;;;;;6307758;22;20019;-62
2023/10/17 10:33:52;;;;;;;6.57;1.20;;;20.60;67.90;;;;;;6307830;22;20437;-62
2023/10/17 10:36:18;;;;;;;7.90;1.60;;;20.60;67.80;;;;;;6307809;22;20035;-62
2023/10/17 10:38:44;;;;;;;11.68;1.42;;;20.50;67.90;;;;;;6279656;22;20019;-61
2023/10/17 10:41:13;;;;;;;9.63;1.25;;;20.60;68.00;;;;;;6306799;22;20137;-61
2023/10/17 10:43:40;;;;;;;7.10;1.70;;;20.50;67.90;;;;;;6307819;22;20363;-62
2023/10/17 10:46:05;;;;;;;8.13;1.42;;;20.50;67.90;;;;;;6307189;22;20015;-60
2023/10/17 10:48:32;;;;;;;7.40;1.45;;;20.50;67.80;;;;;;6254693;22;20054;-60
2023/10/17 10:51:00;;;;;;;7.47;1.38;;;20.50;67.70;;;;;;6307871;22;20045;-60
2023/10/17 10:53:29;;;;;;;12.32;1.75;;;20.50;67.50;;;;;;6306543;22;20321;-62
2023/10/17 10:55:59;;;;;;;7.60;1.48;;;20.40;67.40;;;;;;6280089;22;20046;-60
2023/10/17 10:58:28;;;;;;;8.57;1.77;;;20.40;67.90;;;;;;6307794;22;20038;-61
2023/10/17 11:00:54;;;;;;;10.18;1.85;;;20.40;67.10;;;;;;6306830;22;20030;-59
2023/10/17 11:03:22;;;;;;;6.68;1.30;;;20.40;67.00;;;;;;6279913;22;20023;-60
2023/10/17 11:05:52;;;;;;;10.35;1.73;;;20.40;66.90;;;;;;6279839;22;20089;-61
2023/10/17 11:08:21;;;;;;;7.28;1.35;;;20.30;66.80;;;;;;6306245;22;20015;-61
2023/10/17 11:10:47;;;;;;;11.95;1.63;;;20.30;66.90;;;;;;6280150;22;20415;-61
2023/10/17 11:13:13;;;;;;;6.97;1.00;;;20.30;66.90;;;;;;6306621;22;20513;-61
2023/10/17 11:15:45;;;;;;;6.00;1.40;;;20.30;66.90;;;;;;6279298;22;20020;-61
2023/10/17 11:18:11;;;;;;;7.72;1.30;;;20.30;66.90;;;;;;6306966;22;20065;-61
2023/10/17 11:20:40;;;;;;;5.30;1.00;;;20.30;66.90;;;;;;6307452;22;20015;-61
2023/10/17 11:23:12;;;;;;;6.90;1.35;;;20.30;66.90;;;;;;6280007;22;20025;-61
2023/10/17 11:25:45;;;;;;;8.50;1.42;;;20.30;66.90;;;;;;6280364;22;20011;-61
2023/10/17 11:28:11;;;;;;;6.97;1.08;;;20.30;66.90;;;;;;6305923;22;20019;-61
2023/10/17 11:30:42;;;;;;;4.00;0.70;;;20.30;66.90;;;;;;6307264;22;20033;-60
2023/10/17 11:33:11;;;;;;;5.28;1.17;;;20.30;66.90;;;;;;6279650;22;20011;-61
2023/10/17 11:35:45;;;;;;;7.13;0.82;;;20.30;66.90;;;;;;6277832;22;20015;-60
2023/10/17 11:38:34;;;;;;;4.35;1.38;;;20.30;66.80;;;;;;6306493;22;20019;-60
2023/10/17 11:41:09;;;;;;;5.72;1.20;;;20.20;66.80;;;;;;6279904;22;20015;-61
2023/10/17 11:43:50;;;;;;;5.45;0.90;;;20.20;66.80;;;;;;6306628;22;20019;-61
2023/10/17 11:46:27;;;;;;;7.63;1.30;;;20.30;66.90;;;;;;6277023;22;20340;-61
2023/10/17 11:48:54;;;;;;;4.65;0.90;;;20.20;67.40;;;;;;6305153;22;20015;-61
2023/10/17 11:51:25;;;;;;;5.55;1.05;;;20.20;66.80;;;;;;6278605;22;20346;-61
2023/10/17 11:54:03;;;;;;;5.15;0.80;;;20.20;66.70;;;;;;6306866;22;20042;-61
2023/10/17 11:56:32;;;;;;;5.93;1.33;;;20.20;66.60;;;;;;6305964;22;20025;-61
2023/10/17 11:58:58;;;;;;;6.68;1.23;;;20.20;66.70;;;;;;6307522;22;20065;-61
2023/10/17 12:01:23;;;;;;;5.13;0.80;;;20.20;67.30;;;;;;6306603;22;20019;-61
2023/10/17 12:03:56;;;;;;;3.30;0.73;;;20.20;66.70;;;;;;6306053;22;20015;-61
2023/10/17 12:06:26;;;;;;;1.80;0.55;;;20.20;66.70;;;;;;6306839;22;20439;-61
2023/10/17 12:08:55;;;;;;;2.83;0.77;;;20.20;66.60;;;;;;6306464;22;20026;-62
2023/10/17 12:11:21;;;;;;;4.00;1.15;;;20.20;66.60;;;;;;6305999;22;20069;-61
2023/10/17 12:13:47;;;;;;;3.25;0.80;;;20.20;66.60;;;;;;6307575;22;20011;-61
2023/10/17 12:16:13;;;;;;;3.72;0.80;;;20.20;66.10;;;;;;6279427;22;20334;-60
2023/10/17 12:18:38;;;;;;;2.05;0.70;;;20.30;65.90;;;;;;6305874;22;20069;-61
2023/10/17 12:21:04;;;;;;;4.78;1.65;;;20.20;65.80;;;;;;6279325;22;20047;-61
2023/10/17 12:23:30;;;;;;;3.65;0.98;;;20.30;65.80;;;;;;6306902;22;20144;-61
2023/10/17 12:26:01;;;;;;;4.78;0.77;;;20.20;65.70;;;;;;6278737;22;20026;-62
2023/10/17 12:28:27;;;;;;;2.35;0.70;;;20.30;65.70;;;;;;6279246;22;20407;-61
2023/10/17 12:30:54;;;;;;;4.63;0.73;;;20.30;65.30;;;;;;6307020;22;20077;-61
2023/10/17 12:33:23;;;;;;;3.75;0.70;;;20.30;65.20;;;;;;6305766;22;20015;-61
2023/10/17 12:35:50;;;;;;;4.18;0.73;;;20.30;65.20;;;;;;6306984;22;20023;-61
2023/10/17 12:38:25;;;;;;;8.20;1.00;;;20.30;65.20;;;;;;6305288;22;20447;-61
2023/10/17 12:40:54;;;;;;;3.97;0.82;;;20.30;65.80;;;;;;6306829;22;20447;-61
2023/10/17 12:43:19;;;;;;;5.35;0.93;;;20.40;65.20;;;;;;6306086;22;20047;-61
2023/10/17 12:45:45;;;;;;;3.38;0.70;;;20.40;65.20;;;;;;6306065;22;20011;-61
2023/10/17 12:48:11;;;;;;;4.32;0.95;;;20.40;65.10;;;;;;6307811;22;20019;-61
2023/10/17 12:50:43;;;;;;;2.85;0.75;;;20.40;65.10;;;;;;6309167;22;20022;-61
2023/10/17 12:53:13;;;;;;;5.03;0.98;;;20.50;65.10;;;;;;6307739;22;20065;-61
2023/10/17 12:55:39;;;;;;;5.22;1.10;;;20.50;65.10;;;;;;6309052;22;20050;-61
2023/10/17 12:58:18;;;;;;;2.33;0.60;;;20.50;65.00;;;;;;6307647;22;20027;-62
2023/10/17 13:00:47;;;;;;;3.42;0.73;;;20.50;65.00;;;;;;6308243;22;20053;-61
2023/10/17 13:03:12;;;;;;;;;;;20.60;65.10;;;;;;6308784;22;20011;-60
2023/10/17 13:05:38;;;;;;;5.63;0.85;;;20.50;65.00;;;;;;6280921;22;19986;-61
2023/10/17 13:08:04;;;;;;;1.45;0.43;;;20.60;65.00;;;;;;6280722;22;20019;-61
2023/10/17 13:10:30;;;;;;;2.30;0.70;;;20.60;64.50;;;;;;6308460;22;20041;-60
2023/10/17 13:12:58;;;;;;;4.55;0.70;;;20.60;64.40;;;;;;6308310;22;20478;-61
2023/10/17 13:15:24;;;;;;;4.38;0.77;;;20.60;64.40;;;;;;6308029;22;20042;-60
2023/10/17 13:17:52;;;;;;;2.70;0.65;;;20.70;64.30;;;;;;6281367;22;20037;-61
2023/10/17 13:20:22;;;;;;;1.40;0.70;;;20.70;64.30;;;;;;6307798;22;20016;-61
2023/10/17 13:22:47;;;;;;;2.63;0.50;;;20.70;64.20;;;;;;6281275;22;20020;-61
2023/10/17 13:25:14;;;;;;;2.60;0.73;;;20.80;64.20;;;;;;6308505;22;20464;-61
2023/10/17 13:27:39;;;;;;;4.18;0.80;;;20.80;64.20;;;;;;6280469;22;20012;-61
2023/10/17 13:30:06;;;;;;;3.80;0.60;;;20.80;64.10;;;;;;6308563;22;20103;-61
2023/10/17 13:32:32;;;;;;;1.77;0.60;;;20.80;64.00;;;;;;6307731;22;20011;-61
2023/10/17 13:34:57;;;;;;;4.10;0.77;;;20.90;64.00;;;;;;6307270;22;20371;-61
2023/10/17 13:37:23;;;;;;;3.45;0.90;;;20.90;63.80;;;;;;6304347;22;20019;-61
2023/10/17 13:39:49;;;;;;;2.55;0.63;;;20.90;63.70;;;;;;6308231;22;20470;-61
2023/10/17 13:42:15;;;;;;;2.72;0.57;;;21.00;63.80;;;;;;6279366;22;20093;-61
2023/10/17 13:44:41;;;;;;;3.65;0.70;;;21.00;63.70;;;;;;6280937;22;20026;-60
2023/10/17 13:47:07;;;;;;;2.30;0.40;;;21.00;63.70;;;;;;6281017;22;20023;-60
2023/10/17 13:49:36;;;;;;;2.33;0.65;;;21.10;63.60;;;;;;6306929;22;20121;-60
2023/10/17 13:52:03;;;;;;;2.90;0.57;;;21.10;63.50;;;;;;6308440;22;20015;-60
2023/10/17 13:54:34;;;;;;;2.40;0.60;;;21.10;63.50;;;;;;6308123;22;20023;-60
2023/10/17 13:57:06;;;;;;;2.17;0.60;;;21.20;63.30;;;;;;6279772;22;20094;-60
2023/10/17 13:59:39;;;;;;;5.82;0.80;;;21.20;63.20;;;;;;6279695;22;20015;-60
2023/10/17 14:02:08;;;;;;;2.10;0.50;;;21.20;63.00;;;;;;6280623;22;20019;-60
2023/10/17 14:04:37;;;;;;;4.05;0.85;;;21.20;63.00;;;;;;6306728;22;20446;-60
2023/10/17 14:07:06;;;;;;;3.63;0.70;;;21.30;63.10;;;;;;6280843;22;20019;-60
2023/10/17 14:09:32;;;;;;;1.48;0.50;;;21.30;63.10;;;;;;6279420;22;20108;-61
2023/10/17 14:12:02;;;;;;;2.45;0.57;;;21.40;63.20;;;;;;6279486;22;20363;-61
2023/10/17 14:14:29;;;;;;;5.30;1.02;;;21.40;63.10;;;;;;6307424;22;20826;-61
2023/10/17 14:16:56;;;;;;;3.42;0.77;;;21.40;63.10;;;;;;6279397;22;20439;-60
2023/10/17 14:22:08;;;;;;;3.88;0.75;;;21.50;63.30;;;;;;6280467;22;20050;-60
2023/10/17 14:27:22;;;;;;;3.38;0.60;;;21.50;63.30;;;;;;6279866;22;20019;-61
2023/10/17 14:29:48;;;;;;;3.47;0.60;;;21.50;63.30;;;;;;6280380;22;20030;-61
2023/10/17 14:32:15;;;;;;;3.92;0.93;;;21.50;63.30;;;;;;6277250;22;20114;-61
2023/10/17 14:34:41;;;;;;;2.97;0.60;;;21.50;63.30;;;;;;6277712;22;20156;-60
2023/10/17 14:37:07;;;;;;;2.38;0.60;;;21.50;63.30;;;;;;6306130;22;20026;-60
2023/10/17 14:39:33;;;;;;;4.10;0.90;;;21.60;63.30;;;;;;6304841;22;20019;-61
2023/10/17 14:41:58;;;;;;;1.48;0.50;;;21.60;63.20;;;;;;6279851;22;20086;-61
2023/10/17 14:44:24;;;;;;;3.03;0.63;;;21.60;63.20;;;;;;6278566;22;20443;-60
2023/10/17 14:46:53;;;;;;;2.90;0.68;;;21.60;63.10;;;;;;6278593;22;20339;-60
2023/10/17 14:49:19;;;;;;;2.97;0.63;;;21.60;63.10;;;;;;6279876;22;20042;-60
2023/10/17 14:51:45;;;;;;;2.78;0.68;;;21.60;63.30;;;;;;6306803;22;20447;-62
2023/10/17 14:54:13;;;;;;;4.18;1.25;;;21.60;63.30;;;;;;6307354;22;20030;-61
2023/10/17 14:56:39;;;;;;;6.55;1.02;;;21.60;63.30;;;;;;6280449;22;20020;-60
2023/10/17 14:59:05;;;;;;;5.00;0.80;;;21.50;63.30;;;;;;6307275;22;20015;-61
2023/10/17 15:01:31;;;;;;;3.00;0.70;;;21.50;63.40;;;;;;6279893;22;20025;-61
2023/10/17 15:03:59;;;;;;;3.83;0.88;;;21.50;63.60;;;;;;6307927;22;20086;-60
2023/10/17 15:06:25;;;;;;;6.03;1.02;;;21.40;63.70;;;;;;6306673;22;20027;-61
2023/10/17 15:08:51;;;;;;;4.75;0.90;;;21.40;63.80;;;;;;6280293;22;20055;-62